sensor_id;sensor_type;location;lat;lon;timestamp;P1;durP1;ratioP1;P2;durP2;ratioP2
19225;SDS011;9747;48.536;12.522;2023-04-01T00:01:20;1.27;;;1.27;;
19225;SDS011;9747;48.536;12.522;2023-04-01T00:03:47;1.30;;;1.20;;
19225;SDS011;9747;48.536;12.522;2023-04-01T00:06:17;1.73;;;1.45;;
19225;SDS011;9747;48.536;12.522;2023-04-01T00:08:45;1.13;;;1.13;;
19225;SDS011;9747;48.536;12.522;2023-04-01T00:11:13;1.00;;;1.00;;
19225;SDS011;9747;48.536;12.522;2023-04-01T00:13:41;2.15;;;1.40;;
19225;SDS011;9747;48.536;12.522;2023-04-01T00:16:09;1.15;;;1.05;;
19225;SDS011;9747;48.536;12.522;2023-04-01T00:18:36;1.30;;;1.20;;
19225;SDS011;9747;48.536;12.522;2023-04-01T00:21:04;1.33;;;1.23;;
19225;SDS011;9747;48.536;12.522;2023-04-01T00:23:33;2.88;;;1.38;;
19225;SDS011;9747;48.536;12.522;2023-04-01T00:26:01;1.27;;;1.10;;
19225;SDS011;9747;48.536;12.522;2023-04-01T00:28:30;1.20;;;1.20;;
19225;SDS011;9747;48.536;12.522;2023-04-01T00:30:58;0.90;;;0.90;;
19225;SDS011;9747;48.536;12.522;2023-04-01T00:33:25;1.30;;;1.02;;
19225;SDS011;9747;48.536;12.522;2023-04-01T00:35:53;1.13;;;1.02;;
19225;SDS011;9747;48.536;12.522;2023-04-01T00:38:20;1.00;;;1.00;;
19225;SDS011;9747;48.536;12.522;2023-04-01T00:40:49;1.45;;;1.20;;
19225;SDS011;9747;48.536;12.522;2023-04-01T00:43:17;1.02;;;1.02;;
19225;SDS011;9747;48.536;12.522;2023-04-01T00:45:47;1.23;;;1.13;;
19225;SDS011;9747;48.536;12.522;2023-04-01T00:48:16;1.00;;;1.00;;
19225;SDS011;9747;48.536;12.522;2023-04-01T00:50:48;1.35;;;1.25;;
19225;SDS011;9747;48.536;12.522;2023-04-01T00:53:18;1.02;;;1.02;;
19225;SDS011;9747;48.536;12.522;2023-04-01T00:55:49;1.25;;;1.10;;
19225;SDS011;9747;48.536;12.522;2023-04-01T00:58:21;1.13;;;1.13;;
19225;SDS011;9747;48.536;12.522;2023-04-01T01:00:52;0.90;;;0.90;;
19225;SDS011;9747;48.536;12.522;2023-04-01T01:03:20;1.05;;;0.90;;
19225;SDS011;9747;48.536;12.522;2023-04-01T01:09:01;1.02;;;1.02;;
19225;SDS011;9747;48.536;12.522;2023-04-01T01:11:41;1.15;;;1.08;;
19225;SDS011;9747;48.536;12.522;2023-04-01T01:14:14;0.93;;;0.93;;
19225;SDS011;9747;48.536;12.522;2023-04-01T01:16:56;1.05;;;0.90;;
19225;SDS011;9747;48.536;12.522;2023-04-01T01:19:35;1.67;;;1.25;;
19225;SDS011;9747;48.536;12.522;2023-04-01T01:22:57;1.30;;;1.10;;
19225;SDS011;9747;48.536;12.522;2023-04-01T01:26:28;1.38;;;0.90;;
19225;SDS011;9747;48.536;12.522;2023-04-01T01:29:11;0.95;;;0.90;;
19225;SDS011;9747;48.536;12.522;2023-04-01T01:32:09;1.77;;;1.00;;
19225;SDS011;9747;48.536;12.522;2023-04-01T01:34:47;1.63;;;1.30;;
19225;SDS011;9747;48.536;12.522;2023-04-01T01:37:20;1.10;;;0.90;;
19225;SDS011;9747;48.536;12.522;2023-04-01T01:39:52;1.17;;;0.90;;
19225;SDS011;9747;48.536;12.522;2023-04-01T01:42:40;0.88;;;0.88;;
19225;SDS011;9747;48.536;12.522;2023-04-01T01:45:10;1.02;;;0.93;;
19225;SDS011;9747;48.536;12.522;2023-04-01T01:47:38;0.88;;;0.88;;
19225;SDS011;9747;48.536;12.522;2023-04-01T01:50:07;0.77;;;0.77;;
19225;SDS011;9747;48.536;12.522;2023-04-01T01:52:37;0.77;;;0.77;;
19225;SDS011;9747;48.536;12.522;2023-04-01T01:57:55;0.80;;;0.80;;
19225;SDS011;9747;48.536;12.522;2023-04-01T02:00:28;0.80;;;0.80;;
19225;SDS011;9747;48.536;12.522;2023-04-01T02:02:57;0.80;;;0.80;;
19225;SDS011;9747;48.536;12.522;2023-04-01T02:05:26;0.75;;;0.75;;
19225;SDS011;9747;48.536;12.522;2023-04-01T02:08:03;0.65;;;0.65;;
19225;SDS011;9747;48.536;12.522;2023-04-01T02:10:35;0.70;;;0.70;;
19225;SDS011;9747;48.536;12.522;2023-04-01T02:13:07;0.63;;;0.63;;
19225;SDS011;9747;48.536;12.522;2023-04-01T02:15:40;0.80;;;0.80;;
19225;SDS011;9747;48.536;12.522;2023-04-01T02:18:11;0.75;;;0.75;;
19225;SDS011;9747;48.536;12.522;2023-04-01T02:20:39;0.82;;;0.70;;
19225;SDS011;9747;48.536;12.522;2023-04-01T02:23:08;0.70;;;0.70;;
19225;SDS011;9747;48.536;12.522;2023-04-01T02:25:37;0.73;;;0.70;;
19225;SDS011;9747;48.536;12.522;2023-04-01T02:28:05;0.60;;;0.60;;
19225;SDS011;9747;48.536;12.522;2023-04-01T02:30:35;0.75;;;0.75;;
19225;SDS011;9747;48.536;12.522;2023-04-01T02:33:04;0.80;;;0.80;;
19225;SDS011;9747;48.536;12.522;2023-04-01T02:35:32;0.73;;;0.73;;
19225;SDS011;9747;48.536;12.522;2023-04-01T02:38:00;1.08;;;0.98;;
19225;SDS011;9747;48.536;12.522;2023-04-01T02:40:29;0.70;;;0.70;;
19225;SDS011;9747;48.536;12.522;2023-04-01T02:43:08;0.73;;;0.73;;
19225;SDS011;9747;48.536;12.522;2023-04-01T02:45:36;0.68;;;0.68;;
19225;SDS011;9747;48.536;12.522;2023-04-01T02:48:04;0.70;;;0.70;;
19225;SDS011;9747;48.536;12.522;2023-04-01T02:50:32;1.00;;;0.82;;
19225;SDS011;9747;48.536;12.522;2023-04-01T02:52:59;0.68;;;0.60;;
19225;SDS011;9747;48.536;12.522;2023-04-01T02:55:30;0.80;;;0.73;;
19225;SDS011;9747;48.536;12.522;2023-04-01T02:57:57;0.80;;;0.75;;
19225;SDS011;9747;48.536;12.522;2023-04-01T03:00:25;0.70;;;0.70;;
19225;SDS011;9747;48.536;12.522;2023-04-01T03:02:53;1.02;;;0.88;;
19225;SDS011;9747;48.536;12.522;2023-04-01T03:05:21;1.15;;;0.80;;
19225;SDS011;9747;48.536;12.522;2023-04-01T03:07:48;0.70;;;0.70;;
19225;SDS011;9747;48.536;12.522;2023-04-01T03:10:16;0.90;;;0.90;;
19225;SDS011;9747;48.536;12.522;2023-04-01T03:12:45;0.60;;;0.60;;
19225;SDS011;9747;48.536;12.522;2023-04-01T03:15:12;0.70;;;0.70;;
19225;SDS011;9747;48.536;12.522;2023-04-01T03:17:41;0.70;;;0.70;;
19225;SDS011;9747;48.536;12.522;2023-04-01T03:20:10;0.68;;;0.68;;
19225;SDS011;9747;48.536;12.522;2023-04-01T03:22:38;1.42;;;0.80;;
19225;SDS011;9747;48.536;12.522;2023-04-01T03:25:06;0.50;;;0.50;;
19225;SDS011;9747;48.536;12.522;2023-04-01T03:27:34;0.80;;;0.80;;
19225;SDS011;9747;48.536;12.522;2023-04-01T03:30:04;0.85;;;0.68;;
19225;SDS011;9747;48.536;12.522;2023-04-01T03:32:41;0.73;;;0.73;;
19225;SDS011;9747;48.536;12.522;2023-04-01T03:35:09;0.63;;;0.52;;
19225;SDS011;9747;48.536;12.522;2023-04-01T03:37:37;0.73;;;0.70;;
19225;SDS011;9747;48.536;12.522;2023-04-01T03:40:05;0.50;;;0.50;;
19225;SDS011;9747;48.536;12.522;2023-04-01T03:42:33;0.50;;;0.50;;
19225;SDS011;9747;48.536;12.522;2023-04-01T03:45:01;1.05;;;0.90;;
19225;SDS011;9747;48.536;12.522;2023-04-01T03:47:31;0.70;;;0.70;;
19225;SDS011;9747;48.536;12.522;2023-04-01T03:49:58;0.63;;;0.63;;
19225;SDS011;9747;48.536;12.522;2023-04-01T03:52:26;0.50;;;0.50;;
19225;SDS011;9747;48.536;12.522;2023-04-01T03:54:53;0.57;;;0.57;;
19225;SDS011;9747;48.536;12.522;2023-04-01T03:57:20;0.60;;;0.60;;
19225;SDS011;9747;48.536;12.522;2023-04-01T03:59:48;0.52;;;0.52;;
19225;SDS011;9747;48.536;12.522;2023-04-01T04:02:17;0.60;;;0.60;;
19225;SDS011;9747;48.536;12.522;2023-04-01T04:04:44;0.70;;;0.70;;
19225;SDS011;9747;48.536;12.522;2023-04-01T04:07:12;0.77;;;0.77;;
19225;SDS011;9747;48.536;12.522;2023-04-01T04:09:58;0.60;;;0.60;;
19225;SDS011;9747;48.536;12.522;2023-04-01T04:12:25;0.40;;;0.40;;
19225;SDS011;9747;48.536;12.522;2023-04-01T04:14:53;1.30;;;0.73;;
19225;SDS011;9747;48.536;12.522;2023-04-01T04:17:22;0.50;;;0.50;;
19225;SDS011;9747;48.536;12.522;2023-04-01T04:19:49;0.60;;;0.60;;
19225;SDS011;9747;48.536;12.522;2023-04-01T04:22:17;0.50;;;0.50;;
19225;SDS011;9747;48.536;12.522;2023-04-01T04:24:45;0.70;;;0.70;;
19225;SDS011;9747;48.536;12.522;2023-04-01T04:27:12;0.50;;;0.50;;
19225;SDS011;9747;48.536;12.522;2023-04-01T04:29:52;0.50;;;0.50;;
19225;SDS011;9747;48.536;12.522;2023-04-01T04:32:19;0.75;;;0.52;;
19225;SDS011;9747;48.536;12.522;2023-04-01T04:34:48;0.50;;;0.50;;
19225;SDS011;9747;48.536;12.522;2023-04-01T04:37:17;0.60;;;0.60;;
19225;SDS011;9747;48.536;12.522;2023-04-01T04:39:44;0.50;;;0.50;;
19225;SDS011;9747;48.536;12.522;2023-04-01T04:42:12;0.60;;;0.60;;
19225;SDS011;9747;48.536;12.522;2023-04-01T04:44:40;0.50;;;0.50;;
19225;SDS011;9747;48.536;12.522;2023-04-01T04:47:07;0.43;;;0.43;;
19225;SDS011;9747;48.536;12.522;2023-04-01T04:49:36;0.60;;;0.60;;
19225;SDS011;9747;48.536;12.522;2023-04-01T04:52:07;0.40;;;0.40;;
19225;SDS011;9747;48.536;12.522;2023-04-01T04:54:35;0.40;;;0.40;;
19225;SDS011;9747;48.536;12.522;2023-04-01T04:57:04;0.47;;;0.47;;
19225;SDS011;9747;48.536;12.522;2023-04-01T04:59:38;0.98;;;0.50;;
19225;SDS011;9747;48.536;12.522;2023-04-01T05:02:11;0.50;;;0.50;;
19225;SDS011;9747;48.536;12.522;2023-04-01T05:04:40;0.40;;;0.40;;
19225;SDS011;9747;48.536;12.522;2023-04-01T05:07:09;0.95;;;0.45;;
19225;SDS011;9747;48.536;12.522;2023-04-01T05:09:36;0.40;;;0.40;;
19225;SDS011;9747;48.536;12.522;2023-04-01T05:12:04;0.50;;;0.50;;
19225;SDS011;9747;48.536;12.522;2023-04-01T05:14:52;0.60;;;0.40;;
19225;SDS011;9747;48.536;12.522;2023-04-01T05:17:20;0.50;;;0.43;;
19225;SDS011;9747;48.536;12.522;2023-04-01T05:19:48;0.30;;;0.30;;
19225;SDS011;9747;48.536;12.522;2023-04-01T05:22:16;0.30;;;0.30;;
19225;SDS011;9747;48.536;12.522;2023-04-01T05:24:44;0.50;;;0.50;;
19225;SDS011;9747;48.536;12.522;2023-04-01T05:27:11;0.40;;;0.40;;
19225;SDS011;9747;48.536;12.522;2023-04-01T05:29:40;0.50;;;0.50;;
19225;SDS011;9747;48.536;12.522;2023-04-01T05:32:23;0.40;;;0.40;;
19225;SDS011;9747;48.536;12.522;2023-04-01T05:34:52;0.50;;;0.50;;
19225;SDS011;9747;48.536;12.522;2023-04-01T05:37:20;0.52;;;0.50;;
19225;SDS011;9747;48.536;12.522;2023-04-01T05:39:48;0.50;;;0.50;;
19225;SDS011;9747;48.536;12.522;2023-04-01T05:42:15;0.40;;;0.40;;
19225;SDS011;9747;48.536;12.522;2023-04-01T05:44:43;0.45;;;0.45;;
19225;SDS011;9747;48.536;12.522;2023-04-01T05:47:29;0.73;;;0.30;;
19225;SDS011;9747;48.536;12.522;2023-04-01T05:49:57;0.40;;;0.40;;
19225;SDS011;9747;48.536;12.522;2023-04-01T05:52:25;0.70;;;0.50;;
19225;SDS011;9747;48.536;12.522;2023-04-01T05:54:53;0.45;;;0.45;;
19225;SDS011;9747;48.536;12.522;2023-04-01T05:57:21;0.40;;;0.40;;
19225;SDS011;9747;48.536;12.522;2023-04-01T05:59:48;0.68;;;0.47;;
19225;SDS011;9747;48.536;12.522;2023-04-01T06:02:16;0.50;;;0.45;;
19225;SDS011;9747;48.536;12.522;2023-04-01T06:04:45;0.40;;;0.40;;
19225;SDS011;9747;48.536;12.522;2023-04-01T06:07:14;0.40;;;0.40;;
19225;SDS011;9747;48.536;12.522;2023-04-01T06:09:43;0.40;;;0.40;;
19225;SDS011;9747;48.536;12.522;2023-04-01T06:12:22;0.50;;;0.50;;
19225;SDS011;9747;48.536;12.522;2023-04-01T06:15:12;0.52;;;0.43;;
19225;SDS011;9747;48.536;12.522;2023-04-01T06:17:51;0.30;;;0.30;;
19225;SDS011;9747;48.536;12.522;2023-04-01T06:20:36;0.55;;;0.47;;
19225;SDS011;9747;48.536;12.522;2023-04-01T06:23:12;0.60;;;0.60;;
19225;SDS011;9747;48.536;12.522;2023-04-01T06:26:08;1.98;;;0.60;;
19225;SDS011;9747;48.536;12.522;2023-04-01T06:28:48;1.08;;;0.40;;
19225;SDS011;9747;48.536;12.522;2023-04-01T06:31:52;0.65;;;0.47;;
19225;SDS011;9747;48.536;12.522;2023-04-01T06:34:39;0.60;;;0.50;;
19225;SDS011;9747;48.536;12.522;2023-04-01T06:37:21;1.13;;;0.43;;
19225;SDS011;9747;48.536;12.522;2023-04-01T06:40:05;1.40;;;0.55;;
19225;SDS011;9747;48.536;12.522;2023-04-01T06:43:07;1.38;;;0.40;;
19225;SDS011;9747;48.536;12.522;2023-04-01T06:46:19;2.17;;;0.77;;
19225;SDS011;9747;48.536;12.522;2023-04-01T06:52:43;2.47;;;0.40;;
19225;SDS011;9747;48.536;12.522;2023-04-01T06:55:44;2.05;;;0.50;;
19225;SDS011;9747;48.536;12.522;2023-04-01T06:58:19;0.40;;;0.40;;
19225;SDS011;9747;48.536;12.522;2023-04-01T07:00:49;2.70;;;0.47;;
19225;SDS011;9747;48.536;12.522;2023-04-01T07:03:20;0.63;;;0.50;;
19225;SDS011;9747;48.536;12.522;2023-04-01T07:05:49;0.50;;;0.50;;
19225;SDS011;9747;48.536;12.522;2023-04-01T07:08:19;0.50;;;0.50;;
19225;SDS011;9747;48.536;12.522;2023-04-01T07:10:52;0.50;;;0.50;;
19225;SDS011;9747;48.536;12.522;2023-04-01T07:13:41;0.63;;;0.60;;
19225;SDS011;9747;48.536;12.522;2023-04-01T07:16:16;0.50;;;0.50;;
19225;SDS011;9747;48.536;12.522;2023-04-01T07:18:47;0.52;;;0.50;;
19225;SDS011;9747;48.536;12.522;2023-04-01T07:21:25;0.68;;;0.65;;
19225;SDS011;9747;48.536;12.522;2023-04-01T07:23:59;1.52;;;0.60;;
19225;SDS011;9747;48.536;12.522;2023-04-01T07:26:54;0.40;;;0.40;;
19225;SDS011;9747;48.536;12.522;2023-04-01T07:29:26;0.60;;;0.60;;
19225;SDS011;9747;48.536;12.522;2023-04-01T07:32:05;0.57;;;0.57;;
19225;SDS011;9747;48.536;12.522;2023-04-01T07:34:48;1.67;;;0.50;;
19225;SDS011;9747;48.536;12.522;2023-04-01T07:37:27;1.38;;;0.68;;
19225;SDS011;9747;48.536;12.522;2023-04-01T07:39:59;1.23;;;0.60;;
19225;SDS011;9747;48.536;12.522;2023-04-01T07:42:44;0.63;;;0.60;;
19225;SDS011;9747;48.536;12.522;2023-04-01T07:45:21;0.82;;;0.60;;
19225;SDS011;9747;48.536;12.522;2023-04-01T07:47:57;0.43;;;0.43;;
19225;SDS011;9747;48.536;12.522;2023-04-01T07:50:40;1.27;;;0.70;;
19225;SDS011;9747;48.536;12.522;2023-04-01T07:53:13;1.40;;;0.50;;
19225;SDS011;9747;48.536;12.522;2023-04-01T07:55:50;1.50;;;0.60;;
19225;SDS011;9747;48.536;12.522;2023-04-01T07:58:27;2.35;;;0.90;;
19225;SDS011;9747;48.536;12.522;2023-04-01T08:01:01;0.75;;;0.75;;
19225;SDS011;9747;48.536;12.522;2023-04-01T08:03:43;0.82;;;0.43;;
19225;SDS011;9747;48.536;12.522;2023-04-01T08:06:26;2.05;;;0.50;;
19225;SDS011;9747;48.536;12.522;2023-04-01T08:08:59;0.65;;;0.63;;
19225;SDS011;9747;48.536;12.522;2023-04-01T08:11:54;0.57;;;0.57;;
19225;SDS011;9747;48.536;12.522;2023-04-01T08:14:55;2.30;;;0.65;;
19225;SDS011;9747;48.536;12.522;2023-04-01T08:17:54;2.05;;;0.52;;
19225;SDS011;9747;48.536;12.522;2023-04-01T08:20:32;2.67;;;0.60;;
19225;SDS011;9747;48.536;12.522;2023-04-01T08:23:05;3.55;;;0.75;;
19225;SDS011;9747;48.536;12.522;2023-04-01T08:25:40;1.20;;;0.70;;
19225;SDS011;9747;48.536;12.522;2023-04-01T08:28:15;1.67;;;0.75;;
19225;SDS011;9747;48.536;12.522;2023-04-01T08:30:48;3.78;;;0.80;;
19225;SDS011;9747;48.536;12.522;2023-04-01T08:33:19;5.30;;;0.90;;
19225;SDS011;9747;48.536;12.522;2023-04-01T08:35:58;2.63;;;0.70;;
19225;SDS011;9747;48.536;12.522;2023-04-01T08:38:30;1.45;;;0.68;;
19225;SDS011;9747;48.536;12.522;2023-04-01T08:47:58;2.05;;;0.68;;
19225;SDS011;9747;48.536;12.522;2023-04-01T08:50:49;2.25;;;0.60;;
19225;SDS011;9747;48.536;12.522;2023-04-01T08:54:06;2.75;;;0.73;;
19225;SDS011;9747;48.536;12.522;2023-04-01T08:56:53;3.33;;;1.45;;
19225;SDS011;9747;48.536;12.522;2023-04-01T08:59:40;5.15;;;1.20;;
19225;SDS011;9747;48.536;12.522;2023-04-01T09:02:55;3.45;;;1.10;;
19225;SDS011;9747;48.536;12.522;2023-04-01T09:06:11;2.60;;;1.20;;
19225;SDS011;9747;48.536;12.522;2023-04-01T09:09:23;3.72;;;1.30;;
19225;SDS011;9747;48.536;12.522;2023-04-01T09:15:20;4.80;;;1.10;;
19225;SDS011;9747;48.536;12.522;2023-04-01T09:18:27;4.10;;;1.25;;
19225;SDS011;9747;48.536;12.522;2023-04-01T09:21:24;2.65;;;1.20;;
19225;SDS011;9747;48.536;12.522;2023-04-01T09:27:14;2.17;;;0.90;;
19225;SDS011;9747;48.536;12.522;2023-04-01T09:29:58;1.38;;;0.85;;
19225;SDS011;9747;48.536;12.522;2023-04-01T09:32:59;2.38;;;1.00;;
19225;SDS011;9747;48.536;12.522;2023-04-01T09:35:45;1.55;;;0.90;;
19225;SDS011;9747;48.536;12.522;2023-04-01T09:38:20;2.75;;;0.90;;
19225;SDS011;9747;48.536;12.522;2023-04-01T09:40:54;1.05;;;0.80;;
19225;SDS011;9747;48.536;12.522;2023-04-01T09:43:38;1.45;;;0.75;;
19225;SDS011;9747;48.536;12.522;2023-04-01T09:46:22;2.30;;;1.00;;
19225;SDS011;9747;48.536;12.522;2023-04-01T09:49:01;2.88;;;0.93;;
19225;SDS011;9747;48.536;12.522;2023-04-01T09:55:19;3.78;;;0.85;;
19225;SDS011;9747;48.536;12.522;2023-04-01T10:01:42;1.92;;;0.70;;
19225;SDS011;9747;48.536;12.522;2023-04-01T10:08:11;2.53;;;0.80;;
19225;SDS011;9747;48.536;12.522;2023-04-01T10:11:41;3.72;;;1.00;;
19225;SDS011;9747;48.536;12.522;2023-04-01T10:14:38;3.05;;;1.10;;
19225;SDS011;9747;48.536;12.522;2023-04-01T10:17:40;3.25;;;1.00;;
19225;SDS011;9747;48.536;12.522;2023-04-01T10:20:41;1.98;;;0.82;;
19225;SDS011;9747;48.536;12.522;2023-04-01T10:23:54;2.80;;;1.00;;
19225;SDS011;9747;48.536;12.522;2023-04-01T10:26:52;1.55;;;1.05;;
19225;SDS011;9747;48.536;12.522;2023-04-01T10:29:58;2.58;;;0.80;;
19225;SDS011;9747;48.536;12.522;2023-04-01T10:36:30;1.13;;;0.82;;
19225;SDS011;9747;48.536;12.522;2023-04-01T10:39:51;3.08;;;0.90;;
19225;SDS011;9747;48.536;12.522;2023-04-01T10:43:49;0.82;;;0.65;;
19225;SDS011;9747;48.536;12.522;2023-04-01T10:49:41;0.73;;;0.73;;
19225;SDS011;9747;48.536;12.522;2023-04-01T10:52:34;1.38;;;0.80;;
19225;SDS011;9747;48.536;12.522;2023-04-01T10:55:56;1.38;;;1.02;;
19225;SDS011;9747;48.536;12.522;2023-04-01T10:59:24;1.65;;;0.95;;
19225;SDS011;9747;48.536;12.522;2023-04-01T11:03:00;2.28;;;0.82;;
19225;SDS011;9747;48.536;12.522;2023-04-01T11:06:49;2.05;;;0.98;;
19225;SDS011;9747;48.536;12.522;2023-04-01T11:23:38;2.15;;;0.80;;
19225;SDS011;9747;48.536;12.522;2023-04-01T11:32:47;3.10;;;0.70;;
19225;SDS011;9747;48.536;12.522;2023-04-01T11:35:24;7.95;;;0.95;;
19225;SDS011;9747;48.536;12.522;2023-04-01T11:38:03;2.15;;;0.90;;
19225;SDS011;9747;48.536;12.522;2023-04-01T11:40:58;2.70;;;1.10;;
19225;SDS011;9747;48.536;12.522;2023-04-01T11:44:11;1.27;;;0.80;;
19225;SDS011;9747;48.536;12.522;2023-04-01T11:47:07;2.05;;;0.98;;
19225;SDS011;9747;48.536;12.522;2023-04-01T11:49:53;2.33;;;0.90;;
19225;SDS011;9747;48.536;12.522;2023-04-01T11:52:42;1.80;;;0.75;;
19225;SDS011;9747;48.536;12.522;2023-04-01T11:55:51;2.28;;;0.80;;
19225;SDS011;9747;48.536;12.522;2023-04-01T11:58:30;0.80;;;0.63;;
19225;SDS011;9747;48.536;12.522;2023-04-01T12:01:13;1.45;;;0.93;;
19225;SDS011;9747;48.536;12.522;2023-04-01T12:04:04;4.38;;;1.10;;
19225;SDS011;9747;48.536;12.522;2023-04-01T12:07:19;3.92;;;0.98;;
19225;SDS011;9747;48.536;12.522;2023-04-01T12:09:53;0.80;;;0.80;;
19225;SDS011;9747;48.536;12.522;2023-04-01T12:12:30;1.73;;;1.15;;
19225;SDS011;9747;48.536;12.522;2023-04-01T12:15:13;2.35;;;1.20;;
19225;SDS011;9747;48.536;12.522;2023-04-01T12:17:48;1.75;;;1.35;;
19225;SDS011;9747;48.536;12.522;2023-04-01T12:20:38;3.35;;;1.25;;
19225;SDS011;9747;48.536;12.522;2023-04-01T12:23:20;2.17;;;1.35;;
19225;SDS011;9747;48.536;12.522;2023-04-01T12:26:27;1.45;;;1.10;;
19225;SDS011;9747;48.536;12.522;2023-04-01T12:29:17;3.70;;;0.82;;
19225;SDS011;9747;48.536;12.522;2023-04-01T12:32:09;0.88;;;0.70;;
19225;SDS011;9747;48.536;12.522;2023-04-01T12:34:51;1.50;;;1.00;;
19225;SDS011;9747;48.536;12.522;2023-04-01T12:37:46;1.73;;;1.50;;
19225;SDS011;9747;48.536;12.522;2023-04-01T12:40:39;2.10;;;1.55;;
19225;SDS011;9747;48.536;12.522;2023-04-01T12:43:21;3.00;;;1.30;;
19225;SDS011;9747;48.536;12.522;2023-04-01T12:46:16;1.52;;;1.20;;
19225;SDS011;9747;48.536;12.522;2023-04-01T12:49:02;2.15;;;1.20;;
19225;SDS011;9747;48.536;12.522;2023-04-01T12:51:57;2.30;;;2.10;;
19225;SDS011;9747;48.536;12.522;2023-04-01T12:54:47;3.92;;;2.70;;
19225;SDS011;9747;48.536;12.522;2023-04-01T13:01:10;2.05;;;1.77;;
19225;SDS011;9747;48.536;12.522;2023-04-01T13:07:26;3.25;;;2.00;;
19225;SDS011;9747;48.536;12.522;2023-04-01T13:10:24;2.75;;;1.98;;
19225;SDS011;9747;48.536;12.522;2023-04-01T13:13:07;2.25;;;1.90;;
19225;SDS011;9747;48.536;12.522;2023-04-01T13:15:48;1.95;;;1.75;;
19225;SDS011;9747;48.536;12.522;2023-04-01T13:18:21;1.67;;;1.58;;
19225;SDS011;9747;48.536;12.522;2023-04-01T13:20:58;2.00;;;1.40;;
19225;SDS011;9747;48.536;12.522;2023-04-01T13:23:42;3.45;;;1.70;;
19225;SDS011;9747;48.536;12.522;2023-04-01T13:26:24;2.20;;;1.27;;
19225;SDS011;9747;48.536;12.522;2023-04-01T13:28:58;2.10;;;1.80;;
19225;SDS011;9747;48.536;12.522;2023-04-01T13:31:36;3.22;;;1.67;;
19225;SDS011;9747;48.536;12.522;2023-04-01T13:34:15;3.15;;;1.52;;
19225;SDS011;9747;48.536;12.522;2023-04-01T13:36:54;1.77;;;1.30;;
19225;SDS011;9747;48.536;12.522;2023-04-01T13:39:41;2.50;;;1.30;;
19225;SDS011;9747;48.536;12.522;2023-04-01T13:42:18;3.28;;;1.48;;
19225;SDS011;9747;48.536;12.522;2023-04-01T13:44:51;2.40;;;1.50;;
19225;SDS011;9747;48.536;12.522;2023-04-01T13:50:50;1.52;;;1.00;;
19225;SDS011;9747;48.536;12.522;2023-04-01T13:53:40;1.20;;;1.17;;
19225;SDS011;9747;48.536;12.522;2023-04-01T13:56:37;1.95;;;1.10;;
19225;SDS011;9747;48.536;12.522;2023-04-01T14:02:30;1.35;;;1.25;;
19225;SDS011;9747;48.536;12.522;2023-04-01T14:05:12;2.22;;;1.35;;
19225;SDS011;9747;48.536;12.522;2023-04-01T14:07:58;3.00;;;1.40;;
19225;SDS011;9747;48.536;12.522;2023-04-01T14:10:36;2.15;;;1.20;;
19225;SDS011;9747;48.536;12.522;2023-04-01T14:13:10;1.45;;;1.35;;
19225;SDS011;9747;48.536;12.522;2023-04-01T14:15:48;3.45;;;1.80;;
19225;SDS011;9747;48.536;12.522;2023-04-01T14:21:33;4.18;;;3.75;;
19225;SDS011;9747;48.536;12.522;2023-04-01T14:24:17;4.68;;;3.75;;
19225;SDS011;9747;48.536;12.522;2023-04-01T14:26:54;3.55;;;3.28;;
19225;SDS011;9747;48.536;12.522;2023-04-01T14:29:49;2.60;;;2.40;;
19225;SDS011;9747;48.536;12.522;2023-04-01T14:32:33;2.60;;;2.42;;
19225;SDS011;9747;48.536;12.522;2023-04-01T14:35:16;2.42;;;2.00;;
19225;SDS011;9747;48.536;12.522;2023-04-01T14:41:09;1.70;;;1.60;;
19225;SDS011;9747;48.536;12.522;2023-04-01T14:44:00;1.88;;;1.77;;
19225;SDS011;9747;48.536;12.522;2023-04-01T14:46:50;1.60;;;1.50;;
19225;SDS011;9747;48.536;12.522;2023-04-01T14:49:50;1.85;;;1.50;;
19225;SDS011;9747;48.536;12.522;2023-04-01T14:52:22;1.95;;;1.30;;
19225;SDS011;9747;48.536;12.522;2023-04-01T14:54:53;1.30;;;1.30;;
19225;SDS011;9747;48.536;12.522;2023-04-01T14:57:23;3.10;;;2.78;;
19225;SDS011;9747;48.536;12.522;2023-04-01T14:59:53;3.72;;;2.00;;
19225;SDS011;9747;48.536;12.522;2023-04-01T15:02:30;1.83;;;1.73;;
19225;SDS011;9747;48.536;12.522;2023-04-01T15:05:10;1.55;;;1.48;;
19225;SDS011;9747;48.536;12.522;2023-04-01T15:07:55;1.50;;;1.40;;
19225;SDS011;9747;48.536;12.522;2023-04-01T15:10:49;1.30;;;1.30;;
19225;SDS011;9747;48.536;12.522;2023-04-01T15:13:50;1.10;;;1.10;;
19225;SDS011;9747;48.536;12.522;2023-04-01T15:17:03;1.50;;;1.30;;
19225;SDS011;9747;48.536;12.522;2023-04-01T15:20:25;1.15;;;1.13;;
19225;SDS011;9747;48.536;12.522;2023-04-01T15:23:15;1.23;;;1.10;;
19225;SDS011;9747;48.536;12.522;2023-04-01T15:26:04;1.33;;;1.30;;
19225;SDS011;9747;48.536;12.522;2023-04-01T15:29:06;1.00;;;1.00;;
19225;SDS011;9747;48.536;12.522;2023-04-01T15:31:53;1.65;;;1.02;;
19225;SDS011;9747;48.536;12.522;2023-04-01T15:34:29;1.05;;;1.00;;
19225;SDS011;9747;48.536;12.522;2023-04-01T15:37:04;1.25;;;1.10;;
19225;SDS011;9747;48.536;12.522;2023-04-01T15:39:41;1.13;;;1.08;;
19225;SDS011;9747;48.536;12.522;2023-04-01T15:42:21;1.25;;;1.20;;
19225;SDS011;9747;48.536;12.522;2023-04-01T15:45:12;6.57;;;1.88;;
19225;SDS011;9747;48.536;12.522;2023-04-01T15:47:53;5.03;;;4.63;;
19225;SDS011;9747;48.536;12.522;2023-04-01T15:50:35;4.57;;;4.10;;
19225;SDS011;9747;48.536;12.522;2023-04-01T15:53:33;2.65;;;2.45;;
19225;SDS011;9747;48.536;12.522;2023-04-01T15:56:30;3.40;;;2.47;;
19225;SDS011;9747;48.536;12.522;2023-04-01T15:59:14;7.70;;;2.78;;
19225;SDS011;9747;48.536;12.522;2023-04-01T16:01:54;8.43;;;2.85;;
19225;SDS011;9747;48.536;12.522;2023-04-01T16:04:44;7.43;;;2.15;;
19225;SDS011;9747;48.536;12.522;2023-04-01T16:07:21;7.05;;;2.38;;
19225;SDS011;9747;48.536;12.522;2023-04-01T16:10:19;5.85;;;2.53;;
19225;SDS011;9747;48.536;12.522;2023-04-01T16:13:04;4.72;;;2.75;;
19225;SDS011;9747;48.536;12.522;2023-04-01T16:15:53;6.07;;;2.80;;
19225;SDS011;9747;48.536;12.522;2023-04-01T16:18:34;12.38;;;2.80;;
19225;SDS011;9747;48.536;12.522;2023-04-01T16:21:14;11.70;;;3.00;;
19225;SDS011;9747;48.536;12.522;2023-04-01T16:23:59;7.53;;;2.78;;
19225;SDS011;9747;48.536;12.522;2023-04-01T16:26:34;8.15;;;2.75;;
19225;SDS011;9747;48.536;12.522;2023-04-01T16:29:07;7.10;;;2.60;;
19225;SDS011;9747;48.536;12.522;2023-04-01T16:31:38;5.05;;;2.70;;
19225;SDS011;9747;48.536;12.522;2023-04-01T16:34:14;6.22;;;2.75;;
19225;SDS011;9747;48.536;12.522;2023-04-01T16:36:45;5.55;;;2.75;;
19225;SDS011;9747;48.536;12.522;2023-04-01T16:39:22;7.80;;;2.80;;
19225;SDS011;9747;48.536;12.522;2023-04-01T16:42:07;6.20;;;3.03;;
19225;SDS011;9747;48.536;12.522;2023-04-01T16:44:46;8.02;;;2.70;;
19225;SDS011;9747;48.536;12.522;2023-04-01T16:47:17;6.15;;;2.80;;
19225;SDS011;9747;48.536;12.522;2023-04-01T16:49:47;7.35;;;3.10;;
19225;SDS011;9747;48.536;12.522;2023-04-01T16:52:29;10.48;;;2.80;;
19225;SDS011;9747;48.536;12.522;2023-04-01T16:55:12;5.38;;;2.55;;
19225;SDS011;9747;48.536;12.522;2023-04-01T16:57:46;5.93;;;3.10;;
19225;SDS011;9747;48.536;12.522;2023-04-01T17:00:22;5.30;;;2.67;;
19225;SDS011;9747;48.536;12.522;2023-04-01T17:02:55;3.90;;;2.28;;
19225;SDS011;9747;48.536;12.522;2023-04-01T17:05:36;4.82;;;2.30;;
19225;SDS011;9747;48.536;12.522;2023-04-01T17:08:14;8.27;;;2.40;;
19225;SDS011;9747;48.536;12.522;2023-04-01T17:10:52;5.13;;;2.47;;
19225;SDS011;9747;48.536;12.522;2023-04-01T17:13:31;6.55;;;2.45;;
19225;SDS011;9747;48.536;12.522;2023-04-01T17:16:06;5.35;;;2.92;;
19225;SDS011;9747;48.536;12.522;2023-04-01T17:18:46;11.88;;;4.35;;
19225;SDS011;9747;48.536;12.522;2023-04-01T17:21:20;21.05;;;7.63;;
19225;SDS011;9747;48.536;12.522;2023-04-01T17:24:06;8.13;;;4.47;;
19225;SDS011;9747;48.536;12.522;2023-04-01T17:26:42;14.45;;;4.88;;